Home > Products > Valid Products > TAF

000
FTUS41 KBOX 311730
TAFACK
TAF
KACK 311730Z 3118/0118 26012G20KT P6SM SCT250
     FM010500 29009KT P6SM SCT060
     FM011100 36008KT P6SM FEW250=



000
FTUS41 KBOX 311730
TAFBAF
TAF
KBAF 311730Z 3118/0118 28010KT P6SM FEW250
     FM010500 00000KT P6SM FEW250
     FM010800 00000KT 2SM BR FEW250=



000
FTUS41 KBOX 311730
TAFBOS
TAF
KBOS 311730Z 3118/0124 26010G19KT P6SM SCT060
     FM010000 28010KT P6SM FEW060
     FM011100 34006KT P6SM FEW250
     FM011400 05007KT P6SM FEW250=



000
FTUS41 KBOX 311730
TAFORH
TAF
KORH 311730Z 3118/0118 27012G20KT P6SM SCT250
     FM010000 28007KT P6SM FEW250=



000
FTUS41 KBOX 311730
TAFPVD
TAF
KPVD 311730Z 3118/0118 27012KT P6SM SCT060
     FM010600 31004KT P6SM FEW250=



000
FTUS41 KBOX 311730
TAFORH
TAF
KORH 311730Z 3118/0118 27012G20KT P6SM SCT250
     FM010000 28007KT P6SM FEW250=



000
FTUS41 KBOX 311730
TAFBDL
TAF
KBDL 311730Z 3118/0124 27010KT P6SM SCT250
     FM010800 00000KT P6SM FEW250=



000
FTUS41 KBOX 311730
TAFBAF
TAF
KBAF 311730Z 3118/0118 28010KT P6SM FEW250
     FM010500 00000KT P6SM FEW250
     FM010800 00000KT 2SM BR FEW250=



000
FTUS41 KBOX 311730
TAFBDL
TAF
KBDL 311730Z 3118/0124 27010KT P6SM SCT250
     FM010800 00000KT P6SM FEW250=



000
FTUS41 KBOX 311730
TAFACK
TAF
KACK 311730Z 3118/0118 26012G20KT P6SM SCT250
     FM010500 29009KT P6SM SCT060
     FM011100 36008KT P6SM FEW250=



000
FTUS41 KBOX 311730
TAFPVD
TAF
KPVD 311730Z 3118/0118 27012KT P6SM SCT060
     FM010600 31004KT P6SM FEW250=



000
FTUS41 KBOX 311730
TAFBOS
TAF
KBOS 311730Z 3118/0124 26010G19KT P6SM SCT060
     FM010000 28010KT P6SM FEW060
     FM011100 34006KT P6SM FEW250
     FM011400 05007KT P6SM FEW250=



000
FTUS41 KBOX 311502 AAA
TAFBOS
TAF AMD
KBOS 311502Z 3115/0118 26010G19KT P6SM SCT060
     FM010000 28010KT P6SM FEW060
     FM011100 34006KT P6SM FEW250
     FM011400 05007KT P6SM FEW250=



000
FTUS41 KBOX 311502 AAA
TAFBDL
TAF AMD
KBDL 311502Z 3115/0118 VRB06KT P6SM SCT250
     FM311600 28010KT P6SM SCT250
     FM010800 00000KT P6SM FEW250=



000
FTUS41 KBOX 311502 AAA
TAFBOS
TAF AMD
KBOS 311502Z 3115/0118 26010G19KT P6SM SCT060
     FM010000 28010KT P6SM FEW060
     FM011100 34006KT P6SM FEW250
     FM011400 05007KT P6SM FEW250=



000
FTUS41 KBOX 311502 AAA
TAFBAF
TAF AMD
KBAF 311502Z 3115/0112 28010KT P6SM FEW250
     FM010500 00000KT P6SM FEW250
     FM010800 00000KT 2SM BR FEW250=



000
FTUS41 KBOX 311502 AAA
TAFPVD
TAF AMD
KPVD 311502Z 3115/0112 28008KT P6SM SCT050
     FM311800 25012KT P6SM SCT060
     FM010600 31004KT P6SM FEW250=



000
FTUS41 KBOX 311502 AAA
TAFPVD
TAF AMD
KPVD 311502Z 3115/0112 28008KT P6SM SCT050
     FM311800 25012KT P6SM SCT060
     FM010600 31004KT P6SM FEW250=



000
FTUS41 KBOX 311502 AAA
TAFORH
TAF AMD
KORH 311502Z 3115/0112 28010KT P6SM SCT250
     FM311700 27012G20KT P6SM SCT250
     FM010000 28007KT P6SM FEW250=



000
FTUS41 KBOX 311502 AAA
TAFORH
TAF AMD
KORH 311502Z 3115/0112 28010KT P6SM SCT250
     FM311700 27012G20KT P6SM SCT250
     FM010000 28007KT P6SM FEW250=



000
FTUS41 KBOX 311502 AAA
TAFACK
TAF AMD
KACK 311502Z 3115/0112 26012G20KT P6SM SCT250
     FM010500 29009KT P6SM SCT060
     FM011100 36008KT P6SM FEW250=



000
FTUS41 KBOX 311502 AAA
TAFACK
TAF AMD
KACK 311502Z 3115/0112 26012G20KT P6SM SCT250
     FM010500 29009KT P6SM SCT060
     FM011100 36008KT P6SM FEW250=



000
FTUS41 KBOX 311502 AAA
TAFBDL
TAF AMD
KBDL 311502Z 3115/0118 VRB06KT P6SM SCT250
     FM311600 28010KT P6SM SCT250
     FM010800 00000KT P6SM FEW250=



000
FTUS41 KBOX 311502 AAA
TAFBAF
TAF AMD
KBAF 311502Z 3115/0112 28010KT P6SM FEW250
     FM010500 00000KT P6SM FEW250
     FM010800 00000KT 2SM BR FEW250=



000
FTUS41 KBOX 311120
TAFBAF
TAF
KBAF 311120Z 3112/0112 VRB04KT P6SM SCT250
     FM311500 28010KT P6SM FEW250
     FM010500 00000KT P6SM FEW250
     FM010800 00000KT 2SM BR FEW250=



000
FTUS41 KBOX 311120
TAFBOS
TAF
KBOS 311120Z 3112/0118 28006KT P6SM SCT250
     FM311800 26010G19KT P6SM SCT060
     FM010000 28010KT P6SM FEW060
     FM011100 34006KT P6SM FEW250
     FM011400 05007KT P6SM FEW250=



000
FTUS41 KBOX 311120
TAFBDL
TAF
KBDL 311120Z 3112/0118 VRB04KT P6SM SCT250
     FM311600 28010KT P6SM SCT250
     FM010800 00000KT P6SM FEW250=



000
FTUS41 KBOX 311120
TAFACK
TAF
KACK 311120Z 3112/0112 26008KT P6SM BKN090
     FM311600 25010KT P6SM SCT250
     FM010500 29009KT P6SM SCT060
     FM011100 36008KT P6SM FEW250=



000
FTUS41 KBOX 311120
TAFORH
TAF
KORH 311120Z 3112/0112 28006KT P6SM SCT250
     FM311700 27010G20KT P6SM SCT250
     FM010000 28007KT P6SM FEW250=



000
FTUS41 KBOX 311120
TAFBOS
TAF
KBOS 311120Z 3112/0118 28006KT P6SM SCT250
     FM311800 26010G19KT P6SM SCT060
     FM010000 28010KT P6SM FEW060
     FM011100 34006KT P6SM FEW250
     FM011400 05007KT P6SM FEW250=



000
FTUS41 KBOX 311120
TAFBOS
TAF
KBOS 311120Z 3112/0118 28006KT P6SM SCT250
     FM311800 26010G19KT P6SM SCT060
     FM010000 28010KT P6SM FEW060
     FM011100 34006KT P6SM FEW250
     FM011400 05007KT P6SM FEW250=



000
FTUS41 KBOX 311120
TAFPVD
TAF
KPVD 311120Z 3112/0112 28004KT P6SM BKN090
     FM311300 28008KT P6SM SCT250
     FM311800 25012KT P6SM SCT060
     FM010600 31004KT P6SM FEW250=



000
FTUS41 KBOX 311120
TAFBDL
TAF
KBDL 311120Z 3112/0118 VRB04KT P6SM SCT250
     FM311600 28010KT P6SM SCT250
     FM010800 00000KT P6SM FEW250=



000
FTUS41 KBOX 311120
TAFACK
TAF
KACK 311120Z 3112/0112 26008KT P6SM BKN090
     FM311600 25010KT P6SM SCT250
     FM010500 29009KT P6SM SCT060
     FM011100 36008KT P6SM FEW250=



000
FTUS41 KBOX 311120
TAFORH
TAF
KORH 311120Z 3112/0112 28006KT P6SM SCT250
     FM311700 27010G20KT P6SM SCT250
     FM010000 28007KT P6SM FEW250=



000
FTUS41 KBOX 311120
TAFORH
TAF
KORH 311120Z 3112/0112 28006KT P6SM SCT250
     FM311700 27010G20KT P6SM SCT250
     FM010000 28007KT P6SM FEW250=



000
FTUS41 KBOX 311120
TAFBAF
TAF
KBAF 311120Z 3112/0112 VRB04KT P6SM SCT250
     FM311500 28010KT P6SM FEW250
     FM010500 00000KT P6SM FEW250
     FM010800 00000KT 2SM BR FEW250=



000
FTUS41 KBOX 311120
TAFACK
TAF
KACK 311120Z 3112/0112 26008KT P6SM BKN090
     FM311600 25010KT P6SM SCT250
     FM010500 29009KT P6SM SCT060
     FM011100 36008KT P6SM FEW250=



000
FTUS41 KBOX 311120
TAFBDL
TAF
KBDL 311120Z 3112/0118 VRB04KT P6SM SCT250
     FM311600 28010KT P6SM SCT250
     FM010800 00000KT P6SM FEW250=



000
FTUS41 KBOX 311120
TAFBAF
TAF
KBAF 311120Z 3112/0112 VRB04KT P6SM SCT250
     FM311500 28010KT P6SM FEW250
     FM010500 00000KT P6SM FEW250
     FM010800 00000KT 2SM BR FEW250=



000
FTUS41 KBOX 311120
TAFBOS
TAF
KBOS 311120Z 3112/0118 28006KT P6SM SCT250
     FM311800 26010G19KT P6SM SCT060
     FM010000 28010KT P6SM FEW060
     FM011100 34006KT P6SM FEW250
     FM011400 05007KT P6SM FEW250=



000
FTUS41 KBOX 311120
TAFBDL
TAF
KBDL 311120Z 3112/0118 VRB04KT P6SM SCT250
     FM311600 28010KT P6SM SCT250
     FM010800 00000KT P6SM FEW250=



000
FTUS41 KBOX 311120
TAFPVD
TAF
KPVD 311120Z 3112/0112 28004KT P6SM BKN090
     FM311300 28008KT P6SM SCT250
     FM311800 25012KT P6SM SCT060
     FM010600 31004KT P6SM FEW250=



000
FTUS41 KBOX 311120
TAFBAF
TAF
KBAF 311120Z 3112/0112 VRB04KT P6SM SCT250
     FM311500 28010KT P6SM FEW250
     FM010500 00000KT P6SM FEW250
     FM010800 00000KT 2SM BR FEW250=



000
FTUS41 KBOX 311120
TAFPVD
TAF
KPVD 311120Z 3112/0112 28004KT P6SM BKN090
     FM311300 28008KT P6SM SCT250
     FM311800 25012KT P6SM SCT060
     FM010600 31004KT P6SM FEW250=



000
FTUS41 KBOX 311120
TAFPVD
TAF
KPVD 311120Z 3112/0112 28004KT P6SM BKN090
     FM311300 28008KT P6SM SCT250
     FM311800 25012KT P6SM SCT060
     FM010600 31004KT P6SM FEW250=



000
FTUS41 KBOX 310951 AAA
TAFBAF
TAF AMD
KBAF 310951Z 3110/0106 00000KT P6SM SCT150
      TEMPO 3110/3111 1SM BR OVC005
     FM311500 28007KT P6SM SCT250
     FM311800 28011G17KT P6SM SCT060
     FM312300 29006KT P6SM FEW250
     FM010500 00000KT P6SM FEW250=



000
FTUS41 KBOX 310951 AAA
TAFBAF
TAF AMD
KBAF 310951Z 3110/0106 00000KT P6SM SCT150
      TEMPO 3110/3111 1SM BR OVC005
     FM311500 28007KT P6SM SCT250
     FM311800 28011G17KT P6SM SCT060
     FM312300 29006KT P6SM FEW250
     FM010500 00000KT P6SM FEW250=



000
FTUS41 KBOX 310951 AAA
TAFBAF
TAF AMD
KBAF 310951Z 3110/0106 00000KT P6SM SCT150
      TEMPO 3110/3111 1SM BR OVC005
     FM311500 28007KT P6SM SCT250
     FM311800 28011G17KT P6SM SCT060
     FM312300 29006KT P6SM FEW250
     FM010500 00000KT P6SM FEW250=



000
FTUS41 KBOX 310820 AAA
TAFPVD
TAF AMD
KPVD 310820Z 3108/0106 25004KT P6SM BKN200
     FM311700 27009G17KT P6SM SCT060=



000
FTUS41 KBOX 310820 AAA
TAFBDL
TAF AMD
KBDL 310820Z 3108/0112 00000KT P6SM BKN200
     FM311500 26006KT P6SM SCT250
     FM311800 27010G17KT P6SM SCT060
     FM312300 28006KT P6SM FEW060
     FM010800 00000KT P6SM FEW250=



000
FTUS41 KBOX 310819 AAA
TAFBOS
TAF AMD
KBOS 310819Z 3108/0112 24006KT P6SM SCT250
     FM311600 27010G17KT P6SM SCT060
     FM010600 30005KT P6SM FEW250=



000
FTUS41 KBOX 310819 AAA
TAFBOS
TAF AMD
KBOS 310819Z 3108/0112 24006KT P6SM SCT250
     FM311600 27010G17KT P6SM SCT060
     FM010600 30005KT P6SM FEW250=



000
FTUS41 KBOX 310530
TAFORH
TAF
KORH 310530Z 3106/0106 26006KT P6SM SCT150
     FM311700 27010G18KT P6SM SCT060
     FM010200 29006KT P6SM FEW250=



000
FTUS41 KBOX 310530
TAFPVD
TAF
KPVD 310530Z 3106/0106 25004KT P6SM BKN150
     FM311700 27009G17KT P6SM SCT060=



000
FTUS41 KBOX 310530
TAFORH
TAF
KORH 310530Z 3106/0106 26006KT P6SM SCT150
     FM311700 27010G18KT P6SM SCT060
     FM010200 29006KT P6SM FEW250=



000
FTUS41 KBOX 310530
TAFBDL
TAF
KBDL 310530Z 3106/0112 00000KT P6SM BKN110
     FM311100 00000KT P6SM SCT080
     FM311500 26006KT P6SM SCT250
     FM311800 27010G17KT P6SM SCT060
     FM312300 28006KT P6SM FEW060
     FM010800 00000KT P6SM FEW250=



000
FTUS41 KBOX 310530
TAFBOS
TAF
KBOS 310530Z 3106/0112 25006KT P6SM SCT080
     FM311600 27010G17KT P6SM SCT060
     FM010600 30005KT P6SM FEW250=



000
FTUS41 KBOX 310530
TAFBAF
TAF
KBAF 310530Z 3106/0106 00000KT P6SM SCT150
     FM311500 28007KT P6SM SCT250
     FM311800 28011G17KT P6SM SCT060
     FM312300 29006KT P6SM FEW250
     FM010500 00000KT P6SM FEW250=



000
FTUS41 KBOX 310530
TAFPVD
TAF
KPVD 310530Z 3106/0106 25004KT P6SM BKN150
     FM311700 27009G17KT P6SM SCT060=



000
FTUS41 KBOX 310530
TAFBOS
TAF
KBOS 310530Z 3106/0112 25006KT P6SM SCT080
     FM311600 27010G17KT P6SM SCT060
     FM010600 30005KT P6SM FEW250=



000
FTUS41 KBOX 310530
TAFACK
TAF
KACK 310530Z 3106/0106 23007KT P6SM BKN100
     FM311500 25011KT P6SM BKN080
     FM311700 25011G19KT P6SM SCT250
     FM010500 29009KT P6SM SCT250=



000
FTUS41 KBOX 310530
TAFBAF
TAF
KBAF 310530Z 3106/0106 00000KT P6SM SCT150
     FM311500 28007KT P6SM SCT250
     FM311800 28011G17KT P6SM SCT060
     FM312300 29006KT P6SM FEW250
     FM010500 00000KT P6SM FEW250=



000
FTUS41 KBOX 310530
TAFBDL
TAF
KBDL 310530Z 3106/0112 00000KT P6SM BKN110
     FM311100 00000KT P6SM SCT080
     FM311500 26006KT P6SM SCT250
     FM311800 27010G17KT P6SM SCT060
     FM312300 28006KT P6SM FEW060
     FM010800 00000KT P6SM FEW250=



000
FTUS41 KBOX 310530
TAFACK
TAF
KACK 310530Z 3106/0106 23007KT P6SM BKN100
     FM311500 25011KT P6SM BKN080
     FM311700 25011G19KT P6SM SCT250
     FM010500 29009KT P6SM SCT250=



000
FTUS41 KBOX 302330
TAFBDL
TAF
KBDL 302330Z 3100/0106 23005KT P6SM SCT060 BKN150
     FM310300 20003KT P6SM FEW060 BKN200
      TEMPO 3107/3111 4SM BR
     FM311300 26004KT P6SM SCT250
     FM311700 27008KT P6SM SCT250
     FM010200 29004KT P6SM SCT250=



000
FTUS41 KBOX 302330
TAFBAF
TAF
KBAF 302330Z 3100/3124 VRB03KT P6SM SCT060 BKN150
     FM310300 VRB03KT P6SM FEW060 BKN200
      TEMPO 3107/3111 4SM BR
     FM311500 27006KT P6SM FEW250
     FM311800 28010KT P6SM SCT250
     FM312200 29006KT P6SM SKC=



000
FTUS41 KBOX 302330
TAFBOS
TAF
KBOS 302330Z 3100/0106 25007KT P6SM SCT060 BKN150
     FM310400 24005KT P6SM SCT070
     FM311700 26009KT P6SM FEW250
     FM010300 30006KT P6SM SKC=



000
FTUS41 KBOX 302330
TAFACK
TAF
KACK 302330Z 3100/3124 23009KT P6SM BKN090
     FM311700 24013KT P6SM SCT080
     FM312300 25012G19KT P6SM BKN250=



000
FTUS41 KBOX 302330
TAFPVD
TAF
KPVD 302330Z 3100/3124 22008KT P6SM BKN070
     FM310600 24005KT P6SM SCT060 BKN150
     FM311300 26006KT P6SM SCT090
     FM311700 26009KT P6SM BKN250=



000
FTUS41 KBOX 302330
TAFORH
TAF
KORH 302330Z 3100/3124 27004KT P6SM SCT080 BKN150
     FM310800 25006KT P6SM SCT250
     FM311700 27010KT P6SM SCT250=



000
FTUS41 KBOX 302330
TAFACK
TAF
KACK 302330Z 3100/3124 23009KT P6SM BKN090
     FM311700 24013KT P6SM SCT080
     FM312300 25012G19KT P6SM BKN250=



000
FTUS41 KBOX 302330
TAFBOS
TAF
KBOS 302330Z 3100/0106 25007KT P6SM SCT060 BKN150
     FM310400 24005KT P6SM SCT070
     FM311700 26009KT P6SM FEW250
     FM010300 30006KT P6SM SKC=



000
FTUS41 KBOX 302330
TAFPVD
TAF
KPVD 302330Z 3100/3124 22008KT P6SM BKN070
     FM310600 24005KT P6SM SCT060 BKN150
     FM311300 26006KT P6SM SCT090
     FM311700 26009KT P6SM BKN250=



000
FTUS41 KBOX 302330
TAFORH
TAF
KORH 302330Z 3100/3124 27004KT P6SM SCT080 BKN150
     FM310800 25006KT P6SM SCT250
     FM311700 27010KT P6SM SCT250=



000
FTUS41 KBOX 302330
TAFBDL
TAF
KBDL 302330Z 3100/0106 23005KT P6SM SCT060 BKN150
     FM310300 20003KT P6SM FEW060 BKN200
      TEMPO 3107/3111 4SM BR
     FM311300 26004KT P6SM SCT250
     FM311700 27008KT P6SM SCT250
     FM010200 29004KT P6SM SCT250=



000
FTUS41 KBOX 302330
TAFBAF
TAF
KBAF 302330Z 3100/3124 VRB03KT P6SM SCT060 BKN150
     FM310300 VRB03KT P6SM FEW060 BKN200
      TEMPO 3107/3111 4SM BR
     FM311500 27006KT P6SM FEW250
     FM311800 28010KT P6SM SCT250
     FM312200 29006KT P6SM SKC=



000
FTUS41 KBOX 302330
TAFACK
TAF
KACK 302330Z 3100/3124 23009KT P6SM BKN090
     FM311700 24013KT P6SM SCT080
     FM312300 25012G19KT P6SM BKN250=



000
FTUS41 KBOX 302330
TAFPVD
TAF
KPVD 302330Z 3100/3124 22008KT P6SM BKN070
     FM310600 24005KT P6SM SCT060 BKN150
     FM311300 26006KT P6SM SCT090
     FM311700 26009KT P6SM BKN250=



000
FTUS41 KBOX 302330
TAFBOS
TAF
KBOS 302330Z 3100/0106 25007KT P6SM SCT060 BKN150
     FM310400 24005KT P6SM SCT070
     FM311700 26009KT P6SM FEW250
     FM010300 30006KT P6SM SKC=



000
FTUS41 KBOX 302330
TAFBAF
TAF
KBAF 302330Z 3100/3124 VRB03KT P6SM SCT060 BKN150
     FM310300 VRB03KT P6SM FEW060 BKN200
      TEMPO 3107/3111 4SM BR
     FM311500 27006KT P6SM FEW250
     FM311800 28010KT P6SM SCT250
     FM312200 29006KT P6SM SKC=



000
FTUS41 KBOX 302330
TAFORH
TAF
KORH 302330Z 3100/3124 27004KT P6SM SCT080 BKN150
     FM310800 25006KT P6SM SCT250
     FM311700 27010KT P6SM SCT250=



000
FTUS41 KBOX 302330
TAFBDL
TAF
KBDL 302330Z 3100/0106 23005KT P6SM SCT060 BKN150
     FM310300 20003KT P6SM FEW060 BKN200
      TEMPO 3107/3111 4SM BR
     FM311300 26004KT P6SM SCT250
     FM311700 27008KT P6SM SCT250
     FM010200 29004KT P6SM SCT250=



000
FTUS41 KBOX 302330
TAFBOS
TAF
KBOS 302330Z 3100/0106 25007KT P6SM SCT060 BKN150
     FM310400 24005KT P6SM SCT070
     FM311700 26009KT P6SM FEW250
     FM010300 30006KT P6SM SKC=



000
FTUS41 KBOX 302330
TAFPVD
TAF
KPVD 302330Z 3100/3124 22008KT P6SM BKN070
     FM310600 24005KT P6SM SCT060 BKN150
     FM311300 26006KT P6SM SCT090
     FM311700 26009KT P6SM BKN250=



000
FTUS41 KBOX 302330
TAFBAF
TAF
KBAF 302330Z 3100/3124 VRB03KT P6SM SCT060 BKN150
     FM310300 VRB03KT P6SM FEW060 BKN200
      TEMPO 3107/3111 4SM BR
     FM311500 27006KT P6SM FEW250
     FM311800 28010KT P6SM SCT250
     FM312200 29006KT P6SM SKC=



000
FTUS41 KBOX 302330
TAFBDL
TAF
KBDL 302330Z 3100/0106 23005KT P6SM SCT060 BKN150
     FM310300 20003KT P6SM FEW060 BKN200
      TEMPO 3107/3111 4SM BR
     FM311300 26004KT P6SM SCT250
     FM311700 27008KT P6SM SCT250
     FM010200 29004KT P6SM SCT250=



000
FTUS41 KBOX 302330
TAFORH
TAF
KORH 302330Z 3100/3124 27004KT P6SM SCT080 BKN150
     FM310800 25006KT P6SM SCT250
     FM311700 27010KT P6SM SCT250=



000
FTUS41 KBOX 302330
TAFACK
TAF
KACK 302330Z 3100/3124 23009KT P6SM BKN090
     FM311700 24013KT P6SM SCT080
     FM312300 25012G19KT P6SM BKN250=



000
FTUS41 KBOX 302218 AAC
TAFBDL
TAF AMD
KBDL 302218Z 3022/3124 34006KT P6SM VCSH SCT050 BKN080
      TEMPO 3022/3024 -TSRA BKN050CB
     FM310000 21004KT P6SM SCT050
     FM310900 VRB03KT 6SM BR SCT250
     FM311600 27007KT P6SM SCT250=



000
FTUS41 KBOX 302218 AAC
TAFBDL
TAF AMD
KBDL 302218Z 3022/3124 34006KT P6SM VCSH SCT050 BKN080
      TEMPO 3022/3024 -TSRA BKN050CB
     FM310000 21004KT P6SM SCT050
     FM310900 VRB03KT 6SM BR SCT250
     FM311600 27007KT P6SM SCT250=



000
FTUS41 KBOX 302218 AAC
TAFBDL
TAF AMD
KBDL 302218Z 3022/3124 34006KT P6SM VCSH SCT050 BKN080
      TEMPO 3022/3024 -TSRA BKN050CB
     FM310000 21004KT P6SM SCT050
     FM310900 VRB03KT 6SM BR SCT250
     FM311600 27007KT P6SM SCT250=



000
FTUS41 KBOX 302218 AAC
TAFBDL
TAF AMD
KBDL 302218Z 3022/3124 34006KT P6SM VCSH SCT050 BKN080
      TEMPO 3022/3024 -TSRA BKN050CB
     FM310000 21004KT P6SM SCT050
     FM310900 VRB03KT 6SM BR SCT250
     FM311600 27007KT P6SM SCT250=



000
FTUS41 KBOX 302213 AAB
TAFBDL
TAF AMD
KBDL 302213Z 3022/3124 20006KT P6SM VCSH SCT050 BKN080
     FM310000 21004KT P6SM SCT050
     FM310900 VRB03KT 6SM BR SCT250
     FM311600 27007KT P6SM SCT250=



000
FTUS41 KBOX 302213 AAB
TAFBDL
TAF AMD
KBDL 302213Z 3022/3124 20006KT P6SM VCSH SCT050 BKN080
     FM310000 21004KT P6SM SCT050
     FM310900 VRB03KT 6SM BR SCT250
     FM311600 27007KT P6SM SCT250=



000
FTUS41 KBOX 302213 AAB
TAFBDL
TAF AMD
KBDL 302213Z 3022/3124 20006KT P6SM VCSH SCT050 BKN080
     FM310000 21004KT P6SM SCT050
     FM310900 VRB03KT 6SM BR SCT250
     FM311600 27007KT P6SM SCT250=



000
FTUS41 KBOX 302213 AAB
TAFBDL
TAF AMD
KBDL 302213Z 3022/3124 20006KT P6SM VCSH SCT050 BKN080
     FM310000 21004KT P6SM SCT050
     FM310900 VRB03KT 6SM BR SCT250
     FM311600 27007KT P6SM SCT250=



000
FTUS41 KBOX 302021 AAA
TAFPVD
TAF AMD
KPVD 302021Z 3020/3118 26009KT P6SM SCT070
     FM302200 22007KT P6SM BKN070
     FM311000 25005KT P6SM BKN090
     FM311400 26007KT P6SM SCT090=



000
FTUS41 KBOX 302021 AAA
TAFPVD
TAF AMD
KPVD 302021Z 3020/3118 26009KT P6SM SCT070
     FM302200 22007KT P6SM BKN070
     FM311000 25005KT P6SM BKN090
     FM311400 26007KT P6SM SCT090=



000
FTUS41 KBOX 302021 AAA
TAFBDL
TAF AMD
KBDL 302021Z 3020/3124 20006KT P6SM SCT120 BKN250
     FM310900 VRB03KT 6SM BR SCT250
     FM311600 27007KT P6SM SCT250=



000
FTUS41 KBOX 302021 AAA
TAFBDL
TAF AMD
KBDL 302021Z 3020/3124 20006KT P6SM SCT120 BKN250
     FM310900 VRB03KT 6SM BR SCT250
     FM311600 27007KT P6SM SCT250=



000
FTUS41 KBOX 302020 AAA
TAFBOS
TAF AMD
KBOS 302020Z 3020/3124 27009KT P6SM BKN080
     FM310600 24006KT P6SM SCT090=



000
FTUS41 KBOX 302020 AAA
TAFBOS
TAF AMD
KBOS 302020Z 3020/3124 27009KT P6SM BKN080
     FM310600 24006KT P6SM SCT090=



000
FTUS41 KBOX 301720
TAFBOS
TAF
KBOS 301720Z 3018/3124 27009KT P6SM BKN080
     FM310600 24006KT P6SM SCT090=



000
FTUS41 KBOX 301720
TAFBAF
TAF
KBAF 301720Z 3018/3118 27006KT P6SM OVC100
     FM310400 00000KT P6SM BKN090
     FM310900 00000KT 3SM BR FEW250
     FM311200 00000KT P6SM SCT250
     FM311500 27006KT P6SM FEW250=



000
FTUS41 KBOX 301720
TAFBAF
TAF
KBAF 301720Z 3018/3118 27006KT P6SM OVC100
     FM310400 00000KT P6SM BKN090
     FM310900 00000KT 3SM BR FEW250
     FM311200 00000KT P6SM SCT250
     FM311500 27006KT P6SM FEW250=



000
FTUS41 KBOX 301720
TAFBDL
TAF
KBDL 301720Z 3018/3124 25006KT P6SM BKN060
     FM310900 VRB03KT 6SM BR SCT250
     FM311600 27007KT P6SM SCT250=



000
FTUS41 KBOX 301720
TAFORH
TAF
KORH 301720Z 3018/3118 26007KT P6SM BKN070
     FM310800 25006KT P6SM SCT080
     FM311700 27010KT P6SM SCT250=



000
FTUS41 KBOX 301720
TAFORH
TAF
KORH 301720Z 3018/3118 26007KT P6SM BKN070
     FM310800 25006KT P6SM SCT080
     FM311700 27010KT P6SM SCT250=



000
FTUS41 KBOX 301720
TAFACK
TAF
KACK 301720Z 3018/3118 22014KT P6SM FEW200
     FM302300 22008KT P6SM BKN100
     FM311400 25012KT P6SM OVC090
     FM311700 24013KT P6SM SCT080=



000
FTUS41 KBOX 301720
TAFBOS
TAF
KBOS 301720Z 3018/3124 27009KT P6SM BKN080
     FM310600 24006KT P6SM SCT090=



000
FTUS41 KBOX 301720
TAFPVD
TAF
KPVD 301720Z 3018/3118 26009KT P6SM SCT070
     FM302200 22007KT P6SM BKN070
     FM311000 25005KT P6SM BKN090
     FM311400 26007KT P6SM SCT090=



000
FTUS41 KBOX 301720
TAFBDL
TAF
KBDL 301720Z 3018/3124 25006KT P6SM BKN060
     FM310900 VRB03KT 6SM BR SCT250
     FM311600 27007KT P6SM SCT250=



000
FTUS41 KBOX 301720
TAFPVD
TAF
KPVD 301720Z 3018/3118 26009KT P6SM SCT070
     FM302200 22007KT P6SM BKN070
     FM311000 25005KT P6SM BKN090
     FM311400 26007KT P6SM SCT090=



000
FTUS41 KBOX 301720
TAFACK
TAF
KACK 301720Z 3018/3118 22014KT P6SM FEW200
     FM302300 22008KT P6SM BKN100
     FM311400 25012KT P6SM OVC090
     FM311700 24013KT P6SM SCT080=



000
FTUS41 KBOX 301121
TAFBAF
TAF
KBAF 301121Z 3012/3112 00000KT P6SM BKN100
     FM301600 26006KT P6SM BKN060
     FM310500 00000KT P6SM BKN070=



000
FTUS41 KBOX 301121
TAFBDL
TAF
KBDL 301121Z 3012/3118 VRB03KT P6SM BKN150
     FM301600 25007KT P6SM BKN070
     FM310100 21005KT P6SM BKN050
     FM311400 27007KT P6SM BKN250=



000
FTUS41 KBOX 301121
TAFORH
TAF
KORH 301121Z 3012/3112 25008KT P6SM BKN150
     FM310700 25007KT P6SM SCT090=



000
FTUS41 KBOX 301121
TAFACK
TAF
KACK 301121Z 3012/3112 25006KT P6SM SCT250
     FM301800 23010G17KT P6SM SCT150
     FM310000 23009KT P6SM BKN090=



000
FTUS41 KBOX 301121
TAFBDL
TAF
KBDL 301121Z 3012/3118 VRB03KT P6SM BKN150
     FM301600 25007KT P6SM BKN070
     FM310100 21005KT P6SM BKN050
     FM311400 27007KT P6SM BKN250=



000
FTUS41 KBOX 301121
TAFPVD
TAF
KPVD 301121Z 3012/3112 23005KT P6SM SCT200
     FM301700 24009KT P6SM BKN070
     FM310500 23005KT P6SM BKN060=



000
FTUS41 KBOX 301121
TAFBOS
TAF
KBOS 301121Z 3012/3118 25008KT P6SM BKN150
     FM302100 21006KT P6SM BKN070
     FM310800 25006KT P6SM SCT090
     FM311700 27011KT P6SM SCT250=



000
FTUS41 KBOX 301121
TAFBDL
TAF
KBDL 301121Z 3012/3118 VRB03KT P6SM BKN150
     FM301600 25007KT P6SM BKN070
     FM310100 21005KT P6SM BKN050
     FM311400 27007KT P6SM BKN250=



000
FTUS41 KBOX 301121
TAFACK
TAF
KACK 301121Z 3012/3112 25006KT P6SM SCT250
     FM301800 23010G17KT P6SM SCT150
     FM310000 23009KT P6SM BKN090=



000
FTUS41 KBOX 301121
TAFBAF
TAF
KBAF 301121Z 3012/3112 00000KT P6SM BKN100
     FM301600 26006KT P6SM BKN060
     FM310500 00000KT P6SM BKN070=



000
FTUS41 KBOX 301121
TAFBOS
TAF
KBOS 301121Z 3012/3118 25008KT P6SM BKN150
     FM302100 21006KT P6SM BKN070
     FM310800 25006KT P6SM SCT090
     FM311700 27011KT P6SM SCT250=



000
FTUS41 KBOX 301121
TAFACK
TAF
KACK 301121Z 3012/3112 25006KT P6SM SCT250
     FM301800 23010G17KT P6SM SCT150
     FM310000 23009KT P6SM BKN090=



000
FTUS41 KBOX 301121
TAFPVD
TAF
KPVD 301121Z 3012/3112 23005KT P6SM SCT200
     FM301700 24009KT P6SM BKN070
     FM310500 23005KT P6SM BKN060=



000
FTUS41 KBOX 301121
TAFBDL
TAF
KBDL 301121Z 3012/3118 VRB03KT P6SM BKN150
     FM301600 25007KT P6SM BKN070
     FM310100 21005KT P6SM BKN050
     FM311400 27007KT P6SM BKN250=



000
FTUS41 KBOX 301121
TAFBAF
TAF
KBAF 301121Z 3012/3112 00000KT P6SM BKN100
     FM301600 26006KT P6SM BKN060
     FM310500 00000KT P6SM BKN070=



000
FTUS41 KBOX 301121
TAFBAF
TAF
KBAF 301121Z 3012/3112 00000KT P6SM BKN100
     FM301600 26006KT P6SM BKN060
     FM310500 00000KT P6SM BKN070=



000
FTUS41 KBOX 301121
TAFACK
TAF
KACK 301121Z 3012/3112 25006KT P6SM SCT250
     FM301800 23010G17KT P6SM SCT150
     FM310000 23009KT P6SM BKN090=



000
FTUS41 KBOX 301121
TAFORH
TAF
KORH 301121Z 3012/3112 25008KT P6SM BKN150
     FM310700 25007KT P6SM SCT090=



000
FTUS41 KBOX 301121
TAFBOS
TAF
KBOS 301121Z 3012/3118 25008KT P6SM BKN150
     FM302100 21006KT P6SM BKN070
     FM310800 25006KT P6SM SCT090
     FM311700 27011KT P6SM SCT250=



000
FTUS41 KBOX 301121
TAFORH
TAF
KORH 301121Z 3012/3112 25008KT P6SM BKN150
     FM310700 25007KT P6SM SCT090=



000
FTUS41 KBOX 301121
TAFPVD
TAF
KPVD 301121Z 3012/3112 23005KT P6SM SCT200
     FM301700 24009KT P6SM BKN070
     FM310500 23005KT P6SM BKN060=



000
FTUS41 KBOX 301121
TAFORH
TAF
KORH 301121Z 3012/3112 25008KT P6SM BKN150
     FM310700 25007KT P6SM SCT090=



000
FTUS41 KBOX 301121
TAFPVD
TAF
KPVD 301121Z 3012/3112 23005KT P6SM SCT200
     FM301700 24009KT P6SM BKN070
     FM310500 23005KT P6SM BKN060=



000
FTUS41 KBOX 301121
TAFBOS
TAF
KBOS 301121Z 3012/3118 25008KT P6SM BKN150
     FM302100 21006KT P6SM BKN070
     FM310800 25006KT P6SM SCT090
     FM311700 27011KT P6SM SCT250=



000
FTUS41 KBOX 301005 AAA
TAFBAF
TAF AMD
KBAF 301005Z 3010/3106 00000KT 4SM BR BKN200
     FM301200 VRB03KT P6SM BKN200
     FM301700 27006KT P6SM BKN060
     FM310500 00000KT P6SM BKN070=



000
FTUS41 KBOX 301005 AAA
TAFBAF
TAF AMD
KBAF 301005Z 3010/3106 00000KT 4SM BR BKN200
     FM301200 VRB03KT P6SM BKN200
     FM301700 27006KT P6SM BKN060
     FM310500 00000KT P6SM BKN070=



000
FTUS41 KBOX 301005 AAA
TAFBAF
TAF AMD
KBAF 301005Z 3010/3106 00000KT 4SM BR BKN200
     FM301200 VRB03KT P6SM BKN200
     FM301700 27006KT P6SM BKN060
     FM310500 00000KT P6SM BKN070=



000
FTUS41 KBOX 301005 AAA
TAFBAF
TAF AMD
KBAF 301005Z 3010/3106 00000KT 4SM BR BKN200
     FM301200 VRB03KT P6SM BKN200
     FM301700 27006KT P6SM BKN060
     FM310500 00000KT P6SM BKN070=



000
FTUS41 KBOX 300902 AAA
TAFACK
TAF AMD
KACK 300902Z 3009/3106 24006KT P6SM SCT250
     FM301700 23010G17KT P6SM SCT200
     FM310000 23009KT P6SM BKN090=



000
FTUS41 KBOX 300902 AAA
TAFACK
TAF AMD
KACK 300902Z 3009/3106 24006KT P6SM SCT250
     FM301700 23010G17KT P6SM SCT200
     FM310000 23009KT P6SM BKN090=



000
FTUS41 KBOX 300901 AAA
TAFPVD
TAF AMD
KPVD 300901Z 3009/3106 25005KT P6SM BKN200
     FM301700 22007KT P6SM BKN070=



000
FTUS41 KBOX 300901 AAA
TAFBDL
TAF AMD
KBDL 300901Z 3009/3112 18005KT P6SM BKN200
     FM301700 26006KT P6SM BKN070
     FM310300 20005KT P6SM BKN060
     FM310900 VRB03KT 3SM BR BKN080=



000
FTUS41 KBOX 300901 AAA
TAFPVD
TAF AMD
KPVD 300901Z 3009/3106 25005KT P6SM BKN200
     FM301700 22007KT P6SM BKN070=



000
FTUS41 KBOX 300901 AAA
TAFBDL
TAF AMD
KBDL 300901Z 3009/3112 18005KT P6SM BKN200
     FM301700 26006KT P6SM BKN070
     FM310300 20005KT P6SM BKN060
     FM310900 VRB03KT 3SM BR BKN080=



000
FTUS41 KBOX 300901 AAA
TAFPVD
TAF AMD
KPVD 300901Z 3009/3106 25005KT P6SM BKN200
     FM301700 22007KT P6SM BKN070=



000
FTUS41 KBOX 300901 AAA
TAFPVD
TAF AMD
KPVD 300901Z 3009/3106 25005KT P6SM BKN200
     FM301700 22007KT P6SM BKN070=



000
FTUS41 KBOX 300901 AAA
TAFBDL
TAF AMD
KBDL 300901Z 3009/3112 18005KT P6SM BKN200
     FM301700 26006KT P6SM BKN070
     FM310300 20005KT P6SM BKN060
     FM310900 VRB03KT 3SM BR BKN080=



000
FTUS41 KBOX 300900 AAA
TAFBOS
TAF AMD
KBOS 300900Z 3009/3112 24008KT P6SM BKN200
     FM301500 26008KT P6SM BKN090=



000
FTUS41 KBOX 300900 AAA
TAFBOS
TAF AMD
KBOS 300900Z 3009/3112 24008KT P6SM BKN200
     FM301500 26008KT P6SM BKN090=



000
FTUS41 KBOX 300523
TAFBDL
TAF
KBDL 300523Z 3006/3112 19004KT P6SM SCT060 BKN200
     FM301700 26006KT P6SM BKN070
     FM310300 20005KT P6SM BKN060
     FM310900 VRB03KT 3SM BR BKN080=



000
FTUS41 KBOX 300523
TAFORH
TAF
KORH 300523Z 3006/3106 26005KT P6SM BKN200
     FM301500 27008KT P6SM BKN080=



000
FTUS41 KBOX 300523
TAFBAF
TAF
KBAF 300523Z 3006/3106 00000KT P6SM SCT060 BKN200
     FM301700 27006KT P6SM BKN060
     FM310500 00000KT P6SM BKN070=



000
FTUS41 KBOX 300523
TAFBOS
TAF
KBOS 300523Z 3006/3112 23008KT P6SM BKN200
     FM301500 26008KT P6SM BKN090=



000
FTUS41 KBOX 300523
TAFPVD
TAF
KPVD 300523Z 3006/3106 25004KT P6SM BKN200
     FM301700 23007KT P6SM BKN070=



000
FTUS41 KBOX 300523
TAFACK
TAF
KACK 300523Z 3006/3106 22006KT P6SM SCT250
     FM301700 23010G17KT P6SM SCT200
     FM310000 23009KT P6SM BKN090=



000
FTUS41 KBOX 300523
TAFORH
TAF
KORH 300523Z 3006/3106 26005KT P6SM BKN200
     FM301500 27008KT P6SM BKN080=



000
FTUS41 KBOX 300523
TAFBOS
TAF
KBOS 300523Z 3006/3112 23008KT P6SM BKN200
     FM301500 26008KT P6SM BKN090=



000
FTUS41 KBOX 300523
TAFPVD
TAF
KPVD 300523Z 3006/3106 25004KT P6SM BKN200
     FM301700 23007KT P6SM BKN070=



000
FTUS41 KBOX 300523
TAFBDL
TAF
KBDL 300523Z 3006/3112 19004KT P6SM SCT060 BKN200
     FM301700 26006KT P6SM BKN070
     FM310300 20005KT P6SM BKN060
     FM310900 VRB03KT 3SM BR BKN080=



000
FTUS41 KBOX 300523
TAFBAF
TAF
KBAF 300523Z 3006/3106 00000KT P6SM SCT060 BKN200
     FM301700 27006KT P6SM BKN060
     FM310500 00000KT P6SM BKN070=



000
FTUS41 KBOX 300523
TAFACK
TAF
KACK 300523Z 3006/3106 22006KT P6SM SCT250
     FM301700 23010G17KT P6SM SCT200
     FM310000 23009KT P6SM BKN090=



000
FTUS41 KBOX 300523
TAFPVD
TAF
KPVD 300523Z 3006/3106 25004KT P6SM BKN200
     FM301700 23007KT P6SM BKN070=



000
FTUS41 KBOX 300523
TAFORH
TAF
KORH 300523Z 3006/3106 26005KT P6SM BKN200
     FM301500 27008KT P6SM BKN080=



000
FTUS41 KBOX 300523
TAFBAF
TAF
KBAF 300523Z 3006/3106 00000KT P6SM SCT060 BKN200
     FM301700 27006KT P6SM BKN060
     FM310500 00000KT P6SM BKN070=



000
FTUS41 KBOX 300523
TAFBOS
TAF
KBOS 300523Z 3006/3112 23008KT P6SM BKN200
     FM301500 26008KT P6SM BKN090=



000
FTUS41 KBOX 300523
TAFACK
TAF
KACK 300523Z 3006/3106 22006KT P6SM SCT250
     FM301700 23010G17KT P6SM SCT200
     FM310000 23009KT P6SM BKN090=



000
FTUS41 KBOX 300523
TAFBDL
TAF
KBDL 300523Z 3006/3112 19004KT P6SM SCT060 BKN200
     FM301700 26006KT P6SM BKN070
     FM310300 20005KT P6SM BKN060
     FM310900 VRB03KT 3SM BR BKN080=



000
FTUS41 KBOX 292333
TAFBOS
TAF
KBOS 292333Z 3000/3106 25007KT P6SM FEW200
     FM301500 24006KT P6SM BKN070
     FM310500 24004KT P6SM SCT050=



000
FTUS41 KBOX 292333
TAFBDL
TAF
KBDL 292333Z 3000/3106 22004KT P6SM FEW200
     FM300600 19004KT P6SM BKN070
     FM301600 25004KT P6SM BKN070
     FM310300 VRB03KT P6SM SCT090
     FM310400 VRB03KT P6SM BKN080=



000
FTUS41 KBOX 292333
TAFBOS
TAF
KBOS 292333Z 3000/3106 25007KT P6SM FEW200
     FM301500 24006KT P6SM BKN070
     FM310500 24004KT P6SM SCT050=



000
FTUS41 KBOX 292333
TAFACK
TAF
KACK 292333Z 3000/3024 21006KT P6SM FEW250
     FM301100 25008KT P6SM SCT250=



000
FTUS41 KBOX 292333
TAFORH
TAF
KORH 292333Z 3000/3024 25004KT P6SM FEW200
     FM301500 27007KT P6SM BKN110=



000
FTUS41 KBOX 292333
TAFBDL
TAF
KBDL 292333Z 3000/3106 22004KT P6SM FEW200
     FM300600 19004KT P6SM BKN070
     FM301600 25004KT P6SM BKN070
     FM310300 VRB03KT P6SM SCT090
     FM310400 VRB03KT P6SM BKN080=



000
FTUS41 KBOX 292333
TAFACK
TAF
KACK 292333Z 3000/3024 21006KT P6SM FEW250
     FM301100 25008KT P6SM SCT250=



000
FTUS41 KBOX 292333
TAFBAF
TAF
KBAF 292333Z 3000/3024 00000KT P6SM FEW200
     FM300600 VRB03KT P6SM BKN060
      TEMPO 3007/3011 4SM BR=



000
FTUS41 KBOX 292333
TAFORH
TAF
KORH 292333Z 3000/3024 25004KT P6SM FEW200
     FM301500 27007KT P6SM BKN110=



000
FTUS41 KBOX 292333
TAFBAF
TAF
KBAF 292333Z 3000/3024 00000KT P6SM FEW200
     FM300600 VRB03KT P6SM BKN060
      TEMPO 3007/3011 4SM BR=



000
FTUS41 KBOX 292333
TAFPVD
TAF
KPVD 292333Z 3000/3024 22005KT P6SM FEW200
     FM301600 24007KT P6SM BKN070=



000
FTUS41 KBOX 292333
TAFACK
TAF
KACK 292333Z 3000/3024 21006KT P6SM FEW250
     FM301100 25008KT P6SM SCT250=



000
FTUS41 KBOX 292333
TAFBOS
TAF
KBOS 292333Z 3000/3106 25007KT P6SM FEW200
     FM301500 24006KT P6SM BKN070
     FM310500 24004KT P6SM SCT050=



000
FTUS41 KBOX 292333
TAFBDL
TAF
KBDL 292333Z 3000/3106 22004KT P6SM FEW200
     FM300600 19004KT P6SM BKN070
     FM301600 25004KT P6SM BKN070
     FM310300 VRB03KT P6SM SCT090
     FM310400 VRB03KT P6SM BKN080=



000
FTUS41 KBOX 292333
TAFBOS
TAF
KBOS 292333Z 3000/3106 25007KT P6SM FEW200
     FM301500 24006KT P6SM BKN070
     FM310500 24004KT P6SM SCT050=



000
FTUS41 KBOX 292333
TAFORH
TAF
KORH 292333Z 3000/3024 25004KT P6SM FEW200
     FM301500 27007KT P6SM BKN110=



000
FTUS41 KBOX 292333
TAFACK
TAF
KACK 292333Z 3000/3024 21006KT P6SM FEW250
     FM301100 25008KT P6SM SCT250=



000
FTUS41 KBOX 292333
TAFBDL
TAF
KBDL 292333Z 3000/3106 22004KT P6SM FEW200
     FM300600 19004KT P6SM BKN070
     FM301600 25004KT P6SM BKN070
     FM310300 VRB03KT P6SM SCT090
     FM310400 VRB03KT P6SM BKN080=



000
FTUS41 KBOX 292333
TAFPVD
TAF
KPVD 292333Z 3000/3024 22005KT P6SM FEW200
     FM301600 24007KT P6SM BKN070=



000
FTUS41 KBOX 292333
TAFBAF
TAF
KBAF 292333Z 3000/3024 00000KT P6SM FEW200
     FM300600 VRB03KT P6SM BKN060
      TEMPO 3007/3011 4SM BR=



000
FTUS41 KBOX 292333
TAFPVD
TAF
KPVD 292333Z 3000/3024 22005KT P6SM FEW200
     FM301600 24007KT P6SM BKN070=



000
FTUS41 KBOX 292333
TAFORH
TAF
KORH 292333Z 3000/3024 25004KT P6SM FEW200
     FM301500 27007KT P6SM BKN110=



000
FTUS41 KBOX 292333
TAFBAF
TAF
KBAF 292333Z 3000/3024 00000KT P6SM FEW200
     FM300600 VRB03KT P6SM BKN060
      TEMPO 3007/3011 4SM BR=



000
FTUS41 KBOX 292147 AAB
TAFBOS
TAF AMD
KBOS 292147Z 2922/3024 25010KT P6SM FEW250
     FM300000 23007KT P6SM FEW250
     FM300600 23007KT P6SM OVC050=



000
FTUS41 KBOX 292012 AAA
TAFPVD
TAF AMD
KPVD 292012Z 2920/3018 24007KT P6SM SCT200
     FM300500 22005KT P6SM BKN050=



000
FTUS41 KBOX 292012 AAA
TAFBDL
TAF AMD
KBDL 292012Z 2920/3024 27005KT P6SM FEW050 SCT250
     FM300200 19005KT P6SM BKN060
     FM301600 25004KT P6SM OVC080=



000
FTUS41 KBOX 292012 AAA
TAFBDL
TAF AMD
KBDL 292012Z 2920/3024 27005KT P6SM FEW050 SCT250
     FM300200 19005KT P6SM BKN060
     FM301600 25004KT P6SM OVC080=



000
FTUS41 KBOX 292012 AAA
TAFBOS
TAF AMD
KBOS 292012Z 2920/3024 21008KT P6SM FEW050
     FM292030 14005KT P6SM FEW050
     FM292300 19005KT P6SM FEW050
     FM300600 23007KT P6SM OVC050=



000
FTUS41 KBOX 292012 AAA
TAFBOS
TAF AMD
KBOS 292012Z 2920/3024 21008KT P6SM FEW050
     FM292030 14005KT P6SM FEW050
     FM292300 19005KT P6SM FEW050
     FM300600 23007KT P6SM OVC050=



000
FTUS41 KBOX 292012 AAA
TAFPVD
TAF AMD
KPVD 292012Z 2920/3018 24007KT P6SM SCT200
     FM300500 22005KT P6SM BKN050=



000
FTUS41 KBOX 292012 AAA
TAFPVD
TAF AMD
KPVD 292012Z 2920/3018 24007KT P6SM SCT200
     FM300500 22005KT P6SM BKN050=



000
FTUS41 KBOX 292012 AAA
TAFPVD
TAF AMD
KPVD 292012Z 2920/3018 24007KT P6SM SCT200
     FM300500 22005KT P6SM BKN050=



000
FTUS41 KBOX 291728
TAFORH
TAF
KORH 291728Z 2918/3018 27007KT P6SM SKC
     FM300400 24007KT P6SM BKN050=



000
FTUS41 KBOX 291728
TAFACK
TAF
KACK 291728Z 2918/3018 22009KT P6SM SKC
     FM301100 24008KT P6SM BKN050=



000
FTUS41 KBOX 291728
TAFBDL
TAF
KBDL 291728Z 2918/3024 25005KT P6SM FEW050 SCT250
     FM300200 19005KT P6SM BKN060
     FM301600 25004KT P6SM OVC080=



000
FTUS41 KBOX 291728
TAFACK
TAF
KACK 291728Z 2918/3018 22009KT P6SM SKC
     FM301100 24008KT P6SM BKN050=



000
FTUS41 KBOX 291728
TAFPVD
TAF
KPVD 291728Z 2918/3018 23008KT P6SM BKN050
     FM292100 21008KT P6SM SCT050
     FM292200 21007KT P6SM SCT200
     FM300500 22005KT P6SM BKN050=



000
FTUS41 KBOX 291728
TAFBOS
TAF
KBOS 291728Z 2918/3024 23008KT P6SM FEW050
     FM291930 14005KT P6SM FEW050
     FM300600 23007KT P6SM OVC050=



000
FTUS41 KBOX 291728
TAFACK
TAF
KACK 291728Z 2918/3018 22009KT P6SM SKC
     FM301100 24008KT P6SM BKN050=



000
FTUS41 KBOX 291728
TAFBDL
TAF
KBDL 291728Z 2918/3024 25005KT P6SM FEW050 SCT250
     FM300200 19005KT P6SM BKN060
     FM301600 25004KT P6SM OVC080=



000
FTUS41 KBOX 291728
TAFBAF
TAF
KBAF 291728Z 2918/3018 24005KT P6SM SCT050
     FM300200 VRB03KT P6SM BKN050=



000
FTUS41 KBOX 291728
TAFORH
TAF
KORH 291728Z 2918/3018 27007KT P6SM SKC
     FM300400 24007KT P6SM BKN050=



000
FTUS41 KBOX 291728
TAFBDL
TAF
KBDL 291728Z 2918/3024 25005KT P6SM FEW050 SCT250
     FM300200 19005KT P6SM BKN060
     FM301600 25004KT P6SM OVC080=



000
FTUS41 KBOX 291728
TAFORH
TAF
KORH 291728Z 2918/3018 27007KT P6SM SKC
     FM300400 24007KT P6SM BKN050=



000
FTUS41 KBOX 291728
TAFPVD
TAF
KPVD 291728Z 2918/3018 23008KT P6SM BKN050
     FM292100 21008KT P6SM SCT050
     FM292200 21007KT P6SM SCT200
     FM300500 22005KT P6SM BKN050=



000
FTUS41 KBOX 291728
TAFBAF
TAF
KBAF 291728Z 2918/3018 24005KT P6SM SCT050
     FM300200 VRB03KT P6SM BKN050=



000
FTUS41 KBOX 291728
TAFACK
TAF
KACK 291728Z 2918/3018 22009KT P6SM SKC
     FM301100 24008KT P6SM BKN050=



000
FTUS41 KBOX 291728
TAFPVD
TAF
KPVD 291728Z 2918/3018 23008KT P6SM BKN050
     FM292100 21008KT P6SM SCT050
     FM292200 21007KT P6SM SCT200
     FM300500 22005KT P6SM BKN050=



000
FTUS41 KBOX 291728
TAFBOS
TAF
KBOS 291728Z 2918/3024 23008KT P6SM FEW050
     FM291930 14005KT P6SM FEW050
     FM300600 23007KT P6SM OVC050=



000
FTUS41 KBOX 291728
TAFBAF
TAF
KBAF 291728Z 2918/3018 24005KT P6SM SCT050
     FM300200 VRB03KT P6SM BKN050=



000
FTUS41 KBOX 291728
TAFBOS
TAF
KBOS 291728Z 2918/3024 23008KT P6SM FEW050
     FM291930 14005KT P6SM FEW050
     FM300600 23007KT P6SM OVC050=



000
FTUS41 KBOX 291728
TAFORH
TAF
KORH 291728Z 2918/3018 27007KT P6SM SKC
     FM300400 24007KT P6SM BKN050=



000
FTUS41 KBOX 291728
TAFBOS
TAF
KBOS 291728Z 2918/3024 23008KT P6SM FEW050
     FM291930 14005KT P6SM FEW050
     FM300600 23007KT P6SM OVC050=



000
FTUS41 KBOX 291728
TAFPVD
TAF
KPVD 291728Z 2918/3018 23008KT P6SM BKN050
     FM292100 21008KT P6SM SCT050
     FM292200 21007KT P6SM SCT200
     FM300500 22005KT P6SM BKN050=



000
FTUS41 KBOX 291728
TAFBDL
TAF
KBDL 291728Z 2918/3024 25005KT P6SM FEW050 SCT250
     FM300200 19005KT P6SM BKN060
     FM301600 25004KT P6SM OVC080=



000
FTUS41 KBOX 291728
TAFBAF
TAF
KBAF 291728Z 2918/3018 24005KT P6SM SCT050
     FM300200 VRB03KT P6SM BKN050=



000
FTUS41 KBOX 291501 AAA
TAFBOS
TAF AMD
KBOS 291501Z 2915/3018 24011KT P6SM FEW250
     FM291900 14006KT P6SM FEW250
     FM292200 19010KT P6SM FEW200
     FM300400 23009KT P6SM SCT200
     FM301500 27007KT P6SM BKN110=



000
FTUS41 KBOX 291501 AAA
TAFBOS
TAF AMD
KBOS 291501Z 2915/3018 24011KT P6SM FEW250
     FM291900 14006KT P6SM FEW250
     FM292200 19010KT P6SM FEW200
     FM300400 23009KT P6SM SCT200
     FM301500 27007KT P6SM BKN110=



000
FTUS41 KBOX 291457 AAA
TAFPVD
TAF AMD
KPVD 291457Z 2915/3012 23011KT P6SM FEW250
     FM291600 22007KT P6SM SCT250
     FM292000 20010KT P6SM SCT050
     FM292300 21008KT P6SM FEW200
     FM300800 23004KT P6SM SCT150=



000
FTUS41 KBOX 291457 AAA
TAFPVD
TAF AMD
KPVD 291457Z 2915/3012 23011KT P6SM FEW250
     FM291600 22007KT P6SM SCT250
     FM292000 20010KT P6SM SCT050
     FM292300 21008KT P6SM FEW200
     FM300800 23004KT P6SM SCT150=



000
FTUS41 KBOX 291457 AAA
TAFPVD
TAF AMD
KPVD 291457Z 2915/3012 23011KT P6SM FEW250
     FM291600 22007KT P6SM SCT250
     FM292000 20010KT P6SM SCT050
     FM292300 21008KT P6SM FEW200
     FM300800 23004KT P6SM SCT150=



000
FTUS41 KBOX 291455 AAA
TAFBDL
TAF AMD
KBDL 291455Z 2915/3018 VRB04KT P6SM FEW030 SCT250
     FM291800 22006KT P6SM SCT250
     FM300700 VRB03KT 3SM BR BKN150
     FM301200 VRB03KT P6SM SCT130
     FM301500 28004KT P6SM BKN090=



000
FTUS41 KBOX 291455 AAA
TAFBDL
TAF AMD
KBDL 291455Z 2915/3018 VRB04KT P6SM FEW030 SCT250
     FM291800 22006KT P6SM SCT250
     FM300700 VRB03KT 3SM BR BKN150
     FM301200 VRB03KT P6SM SCT130
     FM301500 28004KT P6SM BKN090=



000
FTUS41 KBOX 291120
TAFPVD
TAF
KPVD 291120Z 2912/3012 VRB03KT P6SM FEW250
     FM291600 22007KT P6SM SCT250
     FM292000 20010KT P6SM SCT050
     FM292300 21008KT P6SM FEW200
     FM300800 23004KT P6SM SCT150=



000
FTUS41 KBOX 291120
TAFBOS
TAF
KBOS 291120Z 2912/3018 26004KT P6SM FEW250
     FM291700 14006KT P6SM FEW250
     FM292000 19010KT P6SM SCT050
     FM292200 19010KT P6SM FEW200
     FM300400 23009KT P6SM SCT200
     FM301500 27007KT P6SM BKN110=



000
FTUS41 KBOX 291120
TAFBAF
TAF
KBAF 291120Z 2912/3012 VRB04KT P6SM FEW250
     FM292000 22006KT P6SM SCT200
     FM300700 00000KT 3SM BR BKN150=



000
FTUS41 KBOX 291120
TAFBAF
TAF
KBAF 291120Z 2912/3012 VRB04KT P6SM FEW250
     FM292000 22006KT P6SM SCT200
     FM300700 00000KT 3SM BR BKN150=



000
FTUS41 KBOX 291120
TAFACK
TAF
KACK 291120Z 2912/3012 26006KT P6SM SKC=



000
FTUS41 KBOX 291120
TAFBOS
TAF
KBOS 291120Z 2912/3018 26004KT P6SM FEW250
     FM291700 14006KT P6SM FEW250
     FM292000 19010KT P6SM SCT050
     FM292200 19010KT P6SM FEW200
     FM300400 23009KT P6SM SCT200
     FM301500 27007KT P6SM BKN110=



000
FTUS41 KBOX 291120
TAFORH
TAF
KORH 291120Z 2912/3012 27005KT P6SM FEW250=



000
FTUS41 KBOX 291120
TAFPVD
TAF
KPVD 291120Z 2912/3012 VRB03KT P6SM FEW250
     FM291600 22007KT P6SM SCT250
     FM292000 20010KT P6SM SCT050
     FM292300 21008KT P6SM FEW200
     FM300800 23004KT P6SM SCT150=



000
FTUS41 KBOX 291120
TAFBOS
TAF
KBOS 291120Z 2912/3018 26004KT P6SM FEW250
     FM291700 14006KT P6SM FEW250
     FM292000 19010KT P6SM SCT050
     FM292200 19010KT P6SM FEW200
     FM300400 23009KT P6SM SCT200
     FM301500 27007KT P6SM BKN110=



000
FTUS41 KBOX 291120
TAFORH
TAF
KORH 291120Z 2912/3012 27005KT P6SM FEW250=



000
FTUS41 KBOX 291120
TAFBAF
TAF
KBAF 291120Z 2912/3012 VRB04KT P6SM FEW250
     FM292000 22006KT P6SM SCT200
     FM300700 00000KT 3SM BR BKN150=



000
FTUS41 KBOX 291120
TAFBDL
TAF
KBDL 291120Z 2912/3018 VRB04KT P6SM SCT250
     FM291800 22006KT P6SM SCT250
     FM300700 VRB03KT 3SM BR BKN150
     FM301200 VRB03KT P6SM SCT130
     FM301500 28004KT P6SM BKN090=



000
FTUS41 KBOX 291120
TAFACK
TAF
KACK 291120Z 2912/3012 26006KT P6SM SKC=



000
FTUS41 KBOX 291120
TAFBDL
TAF
KBDL 291120Z 2912/3018 VRB04KT P6SM SCT250
     FM291800 22006KT P6SM SCT250
     FM300700 VRB03KT 3SM BR BKN150
     FM301200 VRB03KT P6SM SCT130
     FM301500 28004KT P6SM BKN090=



000
FTUS41 KBOX 291120
TAFPVD
TAF
KPVD 291120Z 2912/3012 VRB03KT P6SM FEW250
     FM291600 22007KT P6SM SCT250
     FM292000 20010KT P6SM SCT050
     FM292300 21008KT P6SM FEW200
     FM300800 23004KT P6SM SCT150=



000
FTUS41 KBOX 291120
TAFORH
TAF
KORH 291120Z 2912/3012 27005KT P6SM FEW250=



000
FTUS41 KBOX 291120
TAFACK
TAF
KACK 291120Z 2912/3012 26006KT P6SM SKC=



000
FTUS41 KBOX 291120
TAFACK
TAF
KACK 291120Z 2912/3012 26006KT P6SM SKC=



000
FTUS41 KBOX 291120
TAFBAF
TAF
KBAF 291120Z 2912/3012 VRB04KT P6SM FEW250
     FM292000 22006KT P6SM SCT200
     FM300700 00000KT 3SM BR BKN150=



000
FTUS41 KBOX 291120
TAFORH
TAF
KORH 291120Z 2912/3012 27005KT P6SM FEW250=



000
FTUS41 KBOX 291120
TAFPVD
TAF
KPVD 291120Z 2912/3012 VRB03KT P6SM FEW250
     FM291600 22007KT P6SM SCT250
     FM292000 20010KT P6SM SCT050
     FM292300 21008KT P6SM FEW200
     FM300800 23004KT P6SM SCT150=



000
FTUS41 KBOX 291120
TAFBDL
TAF
KBDL 291120Z 2912/3018 VRB04KT P6SM SCT250
     FM291800 22006KT P6SM SCT250
     FM300700 VRB03KT 3SM BR BKN150
     FM301200 VRB03KT P6SM SCT130
     FM301500 28004KT P6SM BKN090=



000
FTUS41 KBOX 290806 AAA
TAFPVD
TAF AMD
KPVD 290806Z 2908/3006 27004KT P6SM SKC
     FM291500 23006KT P6SM FEW250
     FM292000 20010KT P6SM SCT050
     FM292300 21008KT P6SM FEW200=



000
FTUS41 KBOX 290806 AAA
TAFPVD
TAF AMD
KPVD 290806Z 2908/3006 27004KT P6SM SKC
     FM291500 23006KT P6SM FEW250
     FM292000 20010KT P6SM SCT050
     FM292300 21008KT P6SM FEW200=



000
FTUS41 KBOX 290806 AAA
TAFPVD
TAF AMD
KPVD 290806Z 2908/3006 27004KT P6SM SKC
     FM291500 23006KT P6SM FEW250
     FM292000 20010KT P6SM SCT050
     FM292300 21008KT P6SM FEW200=



000
FTUS41 KBOX 290805 AAA
TAFBAF
TAF AMD
KBAF 290805Z 2908/3006 00000KT P6SM SKC
      TEMPO 2909/2911 3SM BR
     FM291700 22006KT P6SM SCT200=



000
FTUS41 KBOX 290805 AAA
TAFBAF
TAF AMD
KBAF 290805Z 2908/3006 00000KT P6SM SKC
      TEMPO 2909/2911 3SM BR
     FM291700 22006KT P6SM SCT200=



000
FTUS41 KBOX 290804 AAA
TAFBDL
TAF AMD
KBDL 290804Z 2908/3012 00000KT P6SM SKC
     FM291800 22006KT P6SM SCT250
     FM300800 00000KT P6SM BKN150=



000
FTUS41 KBOX 290804 AAA
TAFBDL
TAF AMD
KBDL 290804Z 2908/3012 00000KT P6SM SKC
     FM291800 22006KT P6SM SCT250
     FM300800 00000KT P6SM BKN150=



000
FTUS41 KBOX 290803 AAA
TAFBOS
TAF AMD
KBOS 290803Z 2908/3012 25004KT P6SM SKC
     FM291700 14006KT P6SM FEW250
     FM292000 19010KT P6SM SCT050
     FM292200 19010KT P6SM FEW200
     FM300400 23009KT P6SM SCT200=



000
FTUS41 KBOX 290522
TAFACK
TAF
KACK 290522Z 2906/3006 24005KT P6SM SKC
     FM292000 21009KT P6SM FEW250=



000
FTUS41 KBOX 290522
TAFBOS
TAF
KBOS 290522Z 2906/3012 26005KT P6SM SKC
     FM291700 14006KT P6SM FEW250
     FM292000 19010KT P6SM SCT050
     FM292200 19010KT P6SM FEW200
     FM300400 23009KT P6SM SCT200=



000
FTUS41 KBOX 290522
TAFPVD
TAF
KPVD 290522Z 2906/3006 27005KT P6SM SKC
     FM290900 00000KT P6SM FEW250
     FM291500 23006KT P6SM FEW250
     FM292000 20010KT P6SM SCT050
     FM292300 21008KT P6SM FEW200=



000
FTUS41 KBOX 290522
TAFBOS
TAF
KBOS 290522Z 2906/3012 26005KT P6SM SKC
     FM291700 14006KT P6SM FEW250
     FM292000 19010KT P6SM SCT050
     FM292200 19010KT P6SM FEW200
     FM300400 23009KT P6SM SCT200=



000
FTUS41 KBOX 290522
TAFBAF
TAF
KBAF 290522Z 2906/3006 00000KT P6SM SKC
     FM290800 00000KT 2SM BR SKC
     FM291200 00000KT P6SM FEW250
     FM292000 22006KT P6SM SCT200=



000
FTUS41 KBOX 290522
TAFBDL
TAF
KBDL 290522Z 2906/3012 00000KT P6SM SKC
     FM291800 22006KT P6SM SCT250
     FM300800 00000KT P6SM BKN150=



000
FTUS41 KBOX 290522
TAFBDL
TAF
KBDL 290522Z 2906/3012 00000KT P6SM SKC
     FM291800 22006KT P6SM SCT250
     FM300800 00000KT P6SM BKN150=



000
FTUS41 KBOX 290522
TAFORH
TAF
KORH 290522Z 2906/3006 29007KT P6SM SKC
     FM292200 23007KT P6SM FEW200=



000
FTUS41 KBOX 290522
TAFORH
TAF
KORH 290522Z 2906/3006 29007KT P6SM SKC
     FM292200 23007KT P6SM FEW200=



000
FTUS41 KBOX 290522
TAFPVD
TAF
KPVD 290522Z 2906/3006 27005KT P6SM SKC
     FM290900 00000KT P6SM FEW250
     FM291500 23006KT P6SM FEW250
     FM292000 20010KT P6SM SCT050
     FM292300 21008KT P6SM FEW200=



000
FTUS41 KBOX 290522
TAFBAF
TAF
KBAF 290522Z 2906/3006 00000KT P6SM SKC
     FM290800 00000KT 2SM BR SKC
     FM291200 00000KT P6SM FEW250
     FM292000 22006KT P6SM SCT200=



000
FTUS41 KBOX 290522
TAFBOS
TAF
KBOS 290522Z 2906/3012 26005KT P6SM SKC
     FM291700 14006KT P6SM FEW250
     FM292000 19010KT P6SM SCT050
     FM292200 19010KT P6SM FEW200
     FM300400 23009KT P6SM SCT200=



000
FTUS41 KBOX 290522
TAFBAF
TAF
KBAF 290522Z 2906/3006 00000KT P6SM SKC
     FM290800 00000KT 2SM BR SKC
     FM291200 00000KT P6SM FEW250
     FM292000 22006KT P6SM SCT200=



000
FTUS41 KBOX 290522
TAFPVD
TAF
KPVD 290522Z 2906/3006 27005KT P6SM SKC
     FM290900 00000KT P6SM FEW250
     FM291500 23006KT P6SM FEW250
     FM292000 20010KT P6SM SCT050
     FM292300 21008KT P6SM FEW200=



000
FTUS41 KBOX 290522
TAFORH
TAF
KORH 290522Z 2906/3006 29007KT P6SM SKC
     FM292200 23007KT P6SM FEW200=



000
FTUS41 KBOX 290522
TAFBDL
TAF
KBDL 290522Z 2906/3012 00000KT P6SM SKC
     FM291800 22006KT P6SM SCT250
     FM300800 00000KT P6SM BKN150=



000
FTUS41 KBOX 290522
TAFACK
TAF
KACK 290522Z 2906/3006 24005KT P6SM SKC
     FM292000 21009KT P6SM FEW250=



000
FTUS41 KBOX 290522
TAFBAF
TAF
KBAF 290522Z 2906/3006 00000KT P6SM SKC
     FM290800 00000KT 2SM BR SKC
     FM291200 00000KT P6SM FEW250
     FM292000 22006KT P6SM SCT200=



000
FTUS41 KBOX 290522
TAFPVD
TAF
KPVD 290522Z 2906/3006 27005KT P6SM SKC
     FM290900 00000KT P6SM FEW250
     FM291500 23006KT P6SM FEW250
     FM292000 20010KT P6SM SCT050
     FM292300 21008KT P6SM FEW200=



000
FTUS41 KBOX 290522
TAFBOS
TAF
KBOS 290522Z 2906/3012 26005KT P6SM SKC
     FM291700 14006KT P6SM FEW250
     FM292000 19010KT P6SM SCT050
     FM292200 19010KT P6SM FEW200
     FM300400 23009KT P6SM SCT200=



000
FTUS41 KBOX 290522
TAFACK
TAF
KACK 290522Z 2906/3006 24005KT P6SM SKC
     FM292000 21009KT P6SM FEW250=



000
FTUS41 KBOX 290522
TAFBDL
TAF
KBDL 290522Z 2906/3012 00000KT P6SM SKC
     FM291800 22006KT P6SM SCT250
     FM300800 00000KT P6SM BKN150=



000
FTUS41 KBOX 290522
TAFORH
TAF
KORH 290522Z 2906/3006 29007KT P6SM SKC
     FM292200 23007KT P6SM FEW200=



000
FTUS41 KBOX 282330
TAFACK
TAF
KACK 282330Z 2900/2924 VRB03KT P6SM SKC
     FM291000 24004KT P6SM SKC
     FM291600 22008KT P6SM FEW250=



000
FTUS41 KBOX 282330
TAFPVD
TAF
KPVD 282330Z 2900/2924 20007KT P6SM FEW060 FEW250
     FM290200 22005KT P6SM FEW250
     FM290700 00000KT P6SM SKC
     FM291500 24007KT P6SM FEW250
     FM291800 20009KT P6SM SCT250=



000
FTUS41 KBOX 282330
TAFORH
TAF
KORH 282330Z 2900/2924 VRB03KT P6SM FEW250
     FM291700 24007KT P6SM SCT200=



000
FTUS41 KBOX 282330
TAFBDL
TAF
KBDL 282330Z 2900/3006 28004KT P6SM FEW060 FEW250
     FM290200 VRB03KT P6SM FEW250
     FM292000 21007KT P6SM SCT200=



000
FTUS41 KBOX 282330
TAFBOS
TAF
KBOS 282330Z 2900/3006 12005KT P6SM SCT060
     FM290100 17006KT P6SM FEW070
     FM290600 24006KT P6SM SKC
     FM291600 18005KT P6SM FEW250
     FM292300 20009KT P6SM SCT200=



000
FTUS41 KBOX 282330
TAFBAF
TAF
KBAF 282330Z 2900/2924 27005KT P6SM SCT060
     FM290200 VRB03KT P6SM FEW250
     FM291800 22007KT P6SM SCT200=



000
FTUS41 KBOX 282330
TAFBOS
TAF
KBOS 282330Z 2900/3006 12005KT P6SM SCT060
     FM290100 17006KT P6SM FEW070
     FM290600 24006KT P6SM SKC
     FM291600 18005KT P6SM FEW250
     FM292300 20009KT P6SM SCT200=



000
FTUS41 KBOX 282330
TAFPVD
TAF
KPVD 282330Z 2900/2924 20007KT P6SM FEW060 FEW250
     FM290200 22005KT P6SM FEW250
     FM290700 00000KT P6SM SKC
     FM291500 24007KT P6SM FEW250
     FM291800 20009KT P6SM SCT250=



000
FTUS41 KBOX 282330
TAFORH
TAF
KORH 282330Z 2900/2924 VRB03KT P6SM FEW250
     FM291700 24007KT P6SM SCT200=



000
FTUS41 KBOX 282330
TAFBDL
TAF
KBDL 282330Z 2900/3006 28004KT P6SM FEW060 FEW250
     FM290200 VRB03KT P6SM FEW250
     FM292000 21007KT P6SM SCT200=



000
FTUS41 KBOX 282330
TAFACK
TAF
KACK 282330Z 2900/2924 VRB03KT P6SM SKC
     FM291000 24004KT P6SM SKC
     FM291600 22008KT P6SM FEW250=



000
FTUS41 KBOX 282330
TAFBAF
TAF
KBAF 282330Z 2900/2924 27005KT P6SM SCT060
     FM290200 VRB03KT P6SM FEW250
     FM291800 22007KT P6SM SCT200=



000
FTUS41 KBOX 282000 AAB
TAFPVD
TAF AMD
KPVD 282000Z 2820/2918 15007KT P6SM BKN050
     FM282200 23008KT P6SM SCT050
     FM290100 21005KT P6SM FEW250=



000
FTUS41 KBOX 282000 AAB
TAFPVD
TAF AMD
KPVD 282000Z 2820/2918 15007KT P6SM BKN050
     FM282200 23008KT P6SM SCT050
     FM290100 21005KT P6SM FEW250=



000
FTUS41 KBOX 282000 AAB
TAFPVD
TAF AMD
KPVD 282000Z 2820/2918 15007KT P6SM BKN050
     FM282200 23008KT P6SM SCT050
     FM290100 21005KT P6SM FEW250=



000
FTUS41 KBOX 281949 AAA
TAFBOS
TAF AMD
KBOS 281949Z 2820/2924 11009KT P6SM SCT050
     FM290000 16006KT P6SM FEW050
     FM290200 22006KT P6SM FEW250
     FM290700 24006KT P6SM FEW250
     FM291700 16006KT P6SM SCT250
     FM292300 20009KT P6SM SCT200=



000
FTUS41 KBOX 281948 AAA
TAFPVD
TAF AMD
KPVD 281948Z 2820/2918 VRB03KT P6SM BKN050
     FM282130 23008KT P6SM SCT050
     FM290100 21005KT P6SM FEW250=



000
FTUS41 KBOX 281948 AAA
TAFPVD
TAF AMD
KPVD 281948Z 2820/2918 VRB03KT P6SM BKN050
     FM282130 23008KT P6SM SCT050
     FM290100 21005KT P6SM FEW250=



000
FTUS41 KBOX 281948 AAA
TAFPVD
TAF AMD
KPVD 281948Z 2820/2918 VRB03KT P6SM BKN050
     FM282130 23008KT P6SM SCT050
     FM290100 21005KT P6SM FEW250=



000
FTUS41 KBOX 281948 AAA
TAFPVD
TAF AMD
KPVD 281948Z 2820/2918 VRB03KT P6SM BKN050
     FM282130 23008KT P6SM SCT050
     FM290100 21005KT P6SM FEW250=



000
FTUS41 KBOX 281947 AAA
TAFBDL
TAF AMD
KBDL 281947Z 2820/2924 31005KT P6SM BKN060
     FM290000 26003KT P6SM FEW060
     FM290300 00000KT P6SM SKC
      TEMPO 2907/2911 4SM BR
     FM291800 22006KT P6SM SCT250=



000
FTUS41 KBOX 281947 AAA
TAFBDL
TAF AMD
KBDL 281947Z 2820/2924 31005KT P6SM BKN060
     FM290000 26003KT P6SM FEW060
     FM290300 00000KT P6SM SKC
      TEMPO 2907/2911 4SM BR
     FM291800 22006KT P6SM SCT250=



000
FTUS41 KBOX 281947 AAA
TAFBDL
TAF AMD
KBDL 281947Z 2820/2924 31005KT P6SM BKN060
     FM290000 26003KT P6SM FEW060
     FM290300 00000KT P6SM SKC
      TEMPO 2907/2911 4SM BR
     FM291800 22006KT P6SM SCT250=



    US Dept of Commerce
    National Oceanic and Atmospheric Administration
    National Weather Service
    1325 East West Highway
    Silver Spring, MD 20910
    Page Author: NWS Internet Services Team
Disclaimer
Information Quality
Credits
Glossary
Privacy Policy
Freedom of Information Act (FOIA)
About Us
Career Opportunities